sensor_id;sensor_type;location;lat;lon;timestamp;pressure;altitude;pressure_sealevel;temperature;humidity
74639;BME280;63146;-33.830;18.668;2022-09-09T00:01:10;100694.95;;;6.54;75.56
74639;BME280;63146;-33.830;18.668;2022-09-09T00:03:36;100695.74;;;6.63;75.39
74639;BME280;63146;-33.830;18.668;2022-09-09T00:06:02;100694.89;;;7.07;74.13
74639;BME280;63146;-33.830;18.668;2022-09-09T00:08:24;100696.75;;;6.96;73.89
74639;BME280;63146;-33.830;18.668;2022-09-09T00:10:48;100693.81;;;7.13;73.15
74639;BME280;63146;-33.830;18.668;2022-09-09T00:13:18;100695.63;;;7.63;72.77
74639;BME280;63146;-33.830;18.668;2022-09-09T00:15:40;100695.82;;;7.17;72.71
74639;BME280;63146;-33.830;18.668;2022-09-09T00:18:10;100695.24;;;7.18;72.65
74639;BME280;63146;-33.830;18.668;2022-09-09T00:20:32;100700.07;;;7.69;72.59
74639;BME280;63146;-33.830;18.668;2022-09-09T00:22:59;100705.64;;;7.50;72.45
74639;BME280;63146;-33.830;18.668;2022-09-09T00:25:23;100703.02;;;7.30;72.09
74639;BME280;63146;-33.830;18.668;2022-09-09T00:27:47;100696.33;;;7.48;72.21
74639;BME280;63146;-33.830;18.668;2022-09-09T00:30:17;100691.48;;;6.75;73.08
74639;BME280;63146;-33.830;18.668;2022-09-09T00:32:35;100688.04;;;6.36;75.02
74639;BME280;63146;-33.830;18.668;2022-09-09T00:35:04;100685.87;;;7.19;73.58
74639;BME280;63146;-33.830;18.668;2022-09-09T00:37:28;100690.60;;;7.10;72.97
74639;BME280;63146;-33.830;18.668;2022-09-09T00:39:53;100694.31;;;6.94;73.13
74639;BME280;63146;-33.830;18.668;2022-09-09T00:42:18;100694.18;;;6.85;73.16
74639;BME280;63146;-33.830;18.668;2022-09-09T00:44:52;100689.23;;;5.81;74.09
74639;BME280;63146;-33.830;18.668;2022-09-09T00:47:17;100681.06;;;5.53;75.57
74639;BME280;63146;-33.830;18.668;2022-09-09T00:49:42;100677.62;;;6.06;75.36
74639;BME280;63146;-33.830;18.668;2022-09-09T00:52:08;100670.25;;;5.64;76.00
74639;BME280;63146;-33.830;18.668;2022-09-09T00:54:32;100663.72;;;6.03;77.69
74639;BME280;63146;-33.830;18.668;2022-09-09T00:56:59;100662.76;;;5.99;77.14
74639;BME280;63146;-33.830;18.668;2022-09-09T00:59:24;100661.92;;;6.45;75.81
74639;BME280;63146;-33.830;18.668;2022-09-09T01:01:39;100655.11;;;6.37;74.83
74639;BME280;63146;-33.830;18.668;2022-09-09T01:04:09;100650.25;;;6.58;74.76
74639;BME280;63146;-33.830;18.668;2022-09-09T01:06:32;100645.60;;;6.86;74.13
74639;BME280;63146;-33.830;18.668;2022-09-09T01:09:07;100636.47;;;6.63;73.71
74639;BME280;63146;-33.830;18.668;2022-09-09T01:11:24;100634.05;;;6.27;75.35
74639;BME280;63146;-33.830;18.668;2022-09-09T01:13:52;100635.09;;;6.43;75.41
74639;BME280;63146;-33.830;18.668;2022-09-09T01:16:13;100637.91;;;6.46;73.84
74639;BME280;63146;-33.830;18.668;2022-09-09T01:18:43;100635.90;;;6.33;74.22
74639;BME280;63146;-33.830;18.668;2022-09-09T01:21:08;100633.24;;;6.37;73.77
74639;BME280;63146;-33.830;18.668;2022-09-09T01:23:38;100630.28;;;6.01;73.88
74639;BME280;63146;-33.830;18.668;2022-09-09T01:26:15;100632.07;;;5.70;76.22
74639;BME280;63146;-33.830;18.668;2022-09-09T01:28:25;100633.74;;;5.70;75.36
74639;BME280;63146;-33.830;18.668;2022-09-09T01:30:46;100634.83;;;6.23;73.79
74639;BME280;63146;-33.830;18.668;2022-09-09T01:33:14;100636.72;;;5.62;74.59
74639;BME280;63146;-33.830;18.668;2022-09-09T01:35:43;100636.87;;;5.49;74.82
74639;BME280;63146;-33.830;18.668;2022-09-09T01:38:03;100634.99;;;5.68;73.49
74639;BME280;63146;-33.830;18.668;2022-09-09T01:40:29;100632.07;;;5.66;72.64
74639;BME280;63146;-33.830;18.668;2022-09-09T01:42:54;100632.64;;;5.33;72.88
74639;BME280;63146;-33.830;18.668;2022-09-09T01:45:19;100632.89;;;4.81;73.77
74639;BME280;63146;-33.830;18.668;2022-09-09T01:47:46;100635.81;;;4.40;74.63
74639;BME280;63146;-33.830;18.668;2022-09-09T01:50:14;100636.96;;;4.70;73.66
74639;BME280;63146;-33.830;18.668;2022-09-09T01:52:36;100640.18;;;4.33;75.92
74639;BME280;63146;-33.830;18.668;2022-09-09T01:55:01;100641.60;;;4.03;75.84
74639;BME280;63146;-33.830;18.668;2022-09-09T01:57:31;100639.18;;;4.27;76.12
74639;BME280;63146;-33.830;18.668;2022-09-09T02:00:01;100643.33;;;3.98;76.20
74639;BME280;63146;-33.830;18.668;2022-09-09T02:02:19;100642.01;;;4.55;76.29
74639;BME280;63146;-33.830;18.668;2022-09-09T02:04:45;100640.84;;;4.10;76.47
74639;BME280;63146;-33.830;18.668;2022-09-09T02:07:17;100640.47;;;4.40;75.56
74639;BME280;63146;-33.830;18.668;2022-09-09T02:09:34;100643.93;;;4.72;73.65
74639;BME280;63146;-33.830;18.668;2022-09-09T02:12:05;100646.86;;;4.59;74.29
74639;BME280;63146;-33.830;18.668;2022-09-09T02:14:27;100645.33;;;4.21;74.90
74639;BME280;63146;-33.830;18.668;2022-09-09T02:16:52;100645.22;;;3.45;75.62
74639;BME280;63146;-33.830;18.668;2022-09-09T02:19:18;100646.42;;;3.75;74.88
74639;BME280;63146;-33.830;18.668;2022-09-09T02:21:42;100648.08;;;4.03;76.30
74639;BME280;63146;-33.830;18.668;2022-09-09T02:24:07;100647.22;;;3.64;76.42
74639;BME280;63146;-33.830;18.668;2022-09-09T02:26:32;100647.63;;;4.10;74.71
74639;BME280;63146;-33.830;18.668;2022-09-09T02:29:01;100644.87;;;3.79;74.66
74639;BME280;63146;-33.830;18.668;2022-09-09T02:31:23;100647.75;;;4.64;72.97
74639;BME280;63146;-33.830;18.668;2022-09-09T02:33:51;100648.97;;;4.37;73.43
74639;BME280;63146;-33.830;18.668;2022-09-09T02:36:14;100648.27;;;4.92;72.45
74639;BME280;63146;-33.830;18.668;2022-09-09T02:38:42;100647.02;;;3.78;76.14
74639;BME280;63146;-33.830;18.668;2022-09-09T02:41:04;100644.75;;;4.16;74.80
74639;BME280;63146;-33.830;18.668;2022-09-09T02:43:32;100648.83;;;4.12;75.25
74639;BME280;63146;-33.830;18.668;2022-09-09T02:46:02;100647.13;;;4.62;74.38
74639;BME280;63146;-33.830;18.668;2022-09-09T02:48:28;100647.82;;;4.45;74.10
74639;BME280;63146;-33.830;18.668;2022-09-09T02:50:53;100647.85;;;4.72;73.99
74639;BME280;63146;-33.830;18.668;2022-09-09T02:53:17;100647.91;;;4.82;72.86
74639;BME280;63146;-33.830;18.668;2022-09-09T02:55:47;100646.46;;;4.65;73.82
74639;BME280;63146;-33.830;18.668;2022-09-09T02:58:04;100644.43;;;4.07;74.98
74639;BME280;63146;-33.830;18.668;2022-09-09T03:00:28;100647.82;;;3.79;76.16
74639;BME280;63146;-33.830;18.668;2022-09-09T03:02:54;100645.42;;;4.63;74.76
74639;BME280;63146;-33.830;18.668;2022-09-09T03:05:19;100640.18;;;5.27;72.95
74639;BME280;63146;-33.830;18.668;2022-09-09T03:07:44;100640.00;;;5.11;72.27
74639;BME280;63146;-33.830;18.668;2022-09-09T03:10:10;100640.01;;;5.19;72.69
74639;BME280;63146;-33.830;18.668;2022-09-09T03:12:35;100643.58;;;4.87;72.88
74639;BME280;63146;-33.830;18.668;2022-09-09T03:15:01;100640.13;;;4.81;74.19
74639;BME280;63146;-33.830;18.668;2022-09-09T03:17:27;100637.92;;;4.50;73.96
74639;BME280;63146;-33.830;18.668;2022-09-09T03:19:53;100641.81;;;4.33;74.72
74639;BME280;63146;-33.830;18.668;2022-09-09T03:22:19;100645.28;;;4.32;73.85
74639;BME280;63146;-33.830;18.668;2022-09-09T03:24:43;100645.79;;;4.20;74.45
74639;BME280;63146;-33.830;18.668;2022-09-09T03:27:08;100647.35;;;4.13;74.96
74639;BME280;63146;-33.830;18.668;2022-09-09T03:29:34;100651.38;;;3.58;75.46
74639;BME280;63146;-33.830;18.668;2022-09-09T03:31:59;100650.54;;;2.91;77.10
74639;BME280;63146;-33.830;18.668;2022-09-09T03:34:24;100648.25;;;2.92;77.73
74639;BME280;63146;-33.830;18.668;2022-09-09T03:36:50;100654.50;;;2.49;79.05
74639;BME280;63146;-33.830;18.668;2022-09-09T03:39:15;100657.44;;;2.58;78.16
74639;BME280;63146;-33.830;18.668;2022-09-09T03:41:41;100660.21;;;2.58;78.48
74639;BME280;63146;-33.830;18.668;2022-09-09T03:44:06;100662.98;;;2.75;77.88
74639;BME280;63146;-33.830;18.668;2022-09-09T03:46:31;100665.35;;;2.50;77.94
74639;BME280;63146;-33.830;18.668;2022-09-09T03:48:57;100661.68;;;2.67;77.03
74639;BME280;63146;-33.830;18.668;2022-09-09T03:51:22;100656.26;;;3.32;75.87
74639;BME280;63146;-33.830;18.668;2022-09-09T03:53:47;100653.10;;;2.79;75.00
74639;BME280;63146;-33.830;18.668;2022-09-09T03:56:12;100657.77;;;2.70;76.40
74639;BME280;63146;-33.830;18.668;2022-09-09T03:58:39;100662.46;;;3.27;74.58
74639;BME280;63146;-33.830;18.668;2022-09-09T04:01:06;100667.61;;;3.37;73.77
74639;BME280;63146;-33.830;18.668;2022-09-09T04:03:30;100669.87;;;3.48;73.98
74639;BME280;63146;-33.830;18.668;2022-09-09T04:05:55;100674.97;;;3.79;73.06
74639;BME280;63146;-33.830;18.668;2022-09-09T04:08:21;100675.51;;;3.21;72.96
74639;BME280;63146;-33.830;18.668;2022-09-09T04:10:46;100677.35;;;3.99;72.39
74639;BME280;63146;-33.830;18.668;2022-09-09T04:13:11;100681.42;;;2.96;73.43
74639;BME280;63146;-33.830;18.668;2022-09-09T04:15:36;100681.86;;;3.02;73.15
74639;BME280;63146;-33.830;18.668;2022-09-09T04:18:02;100682.45;;;3.11;73.46
74639;BME280;63146;-33.830;18.668;2022-09-09T04:20:27;100684.16;;;3.34;73.08
74639;BME280;63146;-33.830;18.668;2022-09-09T04:22:52;100685.67;;;2.90;73.45
74639;BME280;63146;-33.830;18.668;2022-09-09T04:25:17;100688.53;;;2.09;76.57
74639;BME280;63146;-33.830;18.668;2022-09-09T04:27:43;100691.90;;;2.14;78.59
74639;BME280;63146;-33.830;18.668;2022-09-09T04:30:09;100695.52;;;1.86;79.74
74639;BME280;63146;-33.830;18.668;2022-09-09T04:32:33;100692.64;;;1.52;80.50
74639;BME280;63146;-33.830;18.668;2022-09-09T04:34:58;100695.44;;;1.57;80.34
74639;BME280;63146;-33.830;18.668;2022-09-09T04:37:24;100692.94;;;1.63;81.34
74639;BME280;63146;-33.830;18.668;2022-09-09T04:39:50;100697.13;;;1.41;82.03
74639;BME280;63146;-33.830;18.668;2022-09-09T04:42:15;100698.38;;;1.38;81.96
74639;BME280;63146;-33.830;18.668;2022-09-09T04:44:41;100699.87;;;1.28;82.08
74639;BME280;63146;-33.830;18.668;2022-09-09T04:47:06;100704.24;;;1.57;80.14
74639;BME280;63146;-33.830;18.668;2022-09-09T04:49:32;100701.40;;;1.53;80.04
74639;BME280;63146;-33.830;18.668;2022-09-09T04:51:57;100702.52;;;2.30;77.86
74639;BME280;63146;-33.830;18.668;2022-09-09T04:54:23;100699.39;;;2.59;76.91
74639;BME280;63146;-33.830;18.668;2022-09-09T04:56:50;100700.85;;;3.16;75.84
74639;BME280;63146;-33.830;18.668;2022-09-09T04:59:14;100703.15;;;2.93;75.64
74639;BME280;63146;-33.830;18.668;2022-09-09T05:01:40;100707.87;;;3.14;74.55
74639;BME280;63146;-33.830;18.668;2022-09-09T05:04:05;100710.60;;;3.59;74.04
74639;BME280;63146;-33.830;18.668;2022-09-09T05:06:30;100714.33;;;2.44;74.95
74639;BME280;63146;-33.830;18.668;2022-09-09T05:08:55;100722.73;;;3.49;73.72
74639;BME280;63146;-33.830;18.668;2022-09-09T05:11:23;100724.19;;;3.30;73.10
74639;BME280;63146;-33.830;18.668;2022-09-09T05:13:47;100727.21;;;2.70;74.21
74639;BME280;63146;-33.830;18.668;2022-09-09T05:16:13;100729.19;;;2.50;75.73
74639;BME280;63146;-33.830;18.668;2022-09-09T05:18:38;100730.76;;;3.34;73.59
74639;BME280;63146;-33.830;18.668;2022-09-09T05:21:04;100734.60;;;3.43;73.66
74639;BME280;63146;-33.830;18.668;2022-09-09T05:23:29;100733.11;;;3.22;74.22
74639;BME280;63146;-33.830;18.668;2022-09-09T05:25:56;100733.56;;;3.51;73.20
74639;BME280;63146;-33.830;18.668;2022-09-09T05:28:20;100737.34;;;3.84;73.19
74639;BME280;63146;-33.830;18.668;2022-09-09T05:30:45;100733.25;;;4.10;71.51
74639;BME280;63146;-33.830;18.668;2022-09-09T05:33:10;100734.96;;;4.40;72.09
74639;BME280;63146;-33.830;18.668;2022-09-09T05:35:36;100736.13;;;4.84;70.96
74639;BME280;63146;-33.830;18.668;2022-09-09T05:38:02;100736.21;;;5.01;70.78
74639;BME280;63146;-33.830;18.668;2022-09-09T05:40:27;100741.64;;;4.89;71.09
74639;BME280;63146;-33.830;18.668;2022-09-09T05:42:52;100747.37;;;5.02;70.98
74639;BME280;63146;-33.830;18.668;2022-09-09T05:45:17;100749.12;;;5.07;70.98
74639;BME280;63146;-33.830;18.668;2022-09-09T05:47:43;100751.16;;;5.21;71.50
74639;BME280;63146;-33.830;18.668;2022-09-09T05:50:10;100754.39;;;5.36;71.92
74639;BME280;63146;-33.830;18.668;2022-09-09T05:52:34;100755.95;;;5.35;72.83
74639;BME280;63146;-33.830;18.668;2022-09-09T05:55:00;100756.43;;;4.13;76.57
74639;BME280;63146;-33.830;18.668;2022-09-09T05:57:25;100759.09;;;3.53;78.79
74639;BME280;63146;-33.830;18.668;2022-09-09T05:59:51;100759.88;;;3.73;79.11
74639;BME280;63146;-33.830;18.668;2022-09-09T06:02:17;100761.22;;;3.49;80.17
74639;BME280;63146;-33.830;18.668;2022-09-09T06:04:42;100763.87;;;3.50;80.54
74639;BME280;63146;-33.830;18.668;2022-09-09T06:07:07;100765.55;;;3.28;81.23
74639;BME280;63146;-33.830;18.668;2022-09-09T06:09:33;100763.76;;;3.30;82.17
74639;BME280;63146;-33.830;18.668;2022-09-09T06:11:59;100768.44;;;2.86;82.56
74639;BME280;63146;-33.830;18.668;2022-09-09T06:14:24;100770.85;;;3.07;82.20
74639;BME280;63146;-33.830;18.668;2022-09-09T06:16:50;100769.10;;;3.15;82.09
74639;BME280;63146;-33.830;18.668;2022-09-09T06:19:15;100768.62;;;2.91;82.72
74639;BME280;63146;-33.830;18.668;2022-09-09T06:21:40;100772.18;;;2.96;82.70
74639;BME280;63146;-33.830;18.668;2022-09-09T06:24:06;100778.13;;;3.43;81.03
74639;BME280;63146;-33.830;18.668;2022-09-09T06:26:32;100779.19;;;3.74;80.16
74639;BME280;63146;-33.830;18.668;2022-09-09T06:28:58;100780.56;;;3.82;79.59
74639;BME280;63146;-33.830;18.668;2022-09-09T06:31:24;100783.93;;;4.03;78.62
74639;BME280;63146;-33.830;18.668;2022-09-09T06:33:48;100783.77;;;4.27;79.31
74639;BME280;63146;-33.830;18.668;2022-09-09T06:36:15;100779.62;;;3.75;80.49
74639;BME280;63146;-33.830;18.668;2022-09-09T06:38:38;100782.73;;;3.90;81.12
74639;BME280;63146;-33.830;18.668;2022-09-09T06:41:04;100784.97;;;4.66;79.40
74639;BME280;63146;-33.830;18.668;2022-09-09T06:43:30;100791.44;;;5.19;77.78
74639;BME280;63146;-33.830;18.668;2022-09-09T06:45:56;100793.93;;;5.71;76.38
74639;BME280;63146;-33.830;18.668;2022-09-09T06:48:20;100794.75;;;6.10;75.94
74639;BME280;63146;-33.830;18.668;2022-09-09T06:50:45;100792.91;;;6.23;75.54
74639;BME280;63146;-33.830;18.668;2022-09-09T06:53:10;100795.45;;;6.55;75.50
74639;BME280;63146;-33.830;18.668;2022-09-09T06:55:35;100789.25;;;6.78;75.91
74639;BME280;63146;-33.830;18.668;2022-09-09T06:58:01;100786.57;;;6.82;76.08
74639;BME280;63146;-33.830;18.668;2022-09-09T07:00:26;100789.31;;;6.78;77.48
74639;BME280;63146;-33.830;18.668;2022-09-09T07:02:52;100788.71;;;6.91;78.15
74639;BME280;63146;-33.830;18.668;2022-09-09T07:05:17;100789.56;;;6.96;77.48
74639;BME280;63146;-33.830;18.668;2022-09-09T07:07:43;100790.79;;;7.08;77.41
74639;BME280;63146;-33.830;18.668;2022-09-09T07:10:08;100788.12;;;6.96;77.61
74639;BME280;63146;-33.830;18.668;2022-09-09T07:12:33;100790.15;;;7.21;76.12
74639;BME280;63146;-33.830;18.668;2022-09-09T07:14:58;100786.29;;;7.47;75.62
74639;BME280;63146;-33.830;18.668;2022-09-09T07:17:23;100786.80;;;7.63;75.61
74639;BME280;63146;-33.830;18.668;2022-09-09T07:19:48;100790.24;;;7.82;73.76
74639;BME280;63146;-33.830;18.668;2022-09-09T07:22:14;100793.55;;;7.97;73.57
74639;BME280;63146;-33.830;18.668;2022-09-09T07:24:39;100800.78;;;7.91;72.29
74639;BME280;63146;-33.830;18.668;2022-09-09T07:27:04;100800.41;;;8.14;72.06
74639;BME280;63146;-33.830;18.668;2022-09-09T07:29:29;100799.04;;;8.27;70.98
74639;BME280;63146;-33.830;18.668;2022-09-09T07:31:55;100796.14;;;8.36;71.02
74639;BME280;63146;-33.830;18.668;2022-09-09T07:34:20;100797.39;;;8.42;71.67
74639;BME280;63146;-33.830;18.668;2022-09-09T07:36:46;100796.22;;;8.38;71.66
74639;BME280;63146;-33.830;18.668;2022-09-09T07:39:12;100797.76;;;8.37;69.86
74639;BME280;63146;-33.830;18.668;2022-09-09T07:41:38;100797.68;;;8.72;69.69
74639;BME280;63146;-33.830;18.668;2022-09-09T07:44:06;100793.23;;;8.86;69.66
74639;BME280;63146;-33.830;18.668;2022-09-09T07:46:27;100791.51;;;9.00;69.52
74639;BME280;63146;-33.830;18.668;2022-09-09T07:48:55;100792.24;;;9.09;68.99
74639;BME280;63146;-33.830;18.668;2022-09-09T07:51:19;100794.32;;;8.67;68.75
74639;BME280;63146;-33.830;18.668;2022-09-09T07:53:43;100795.61;;;8.98;68.38
74639;BME280;63146;-33.830;18.668;2022-09-09T07:56:10;100800.02;;;9.21;67.52
74639;BME280;63146;-33.830;18.668;2022-09-09T07:58:33;100800.50;;;9.30;67.50
74639;BME280;63146;-33.830;18.668;2022-09-09T08:00:59;100799.92;;;9.81;67.20
74639;BME280;63146;-33.830;18.668;2022-09-09T08:03:24;100798.22;;;9.39;66.61
74639;BME280;63146;-33.830;18.668;2022-09-09T08:05:49;100800.35;;;9.24;66.22
74639;BME280;63146;-33.830;18.668;2022-09-09T08:08:15;100801.07;;;9.66;66.47
74639;BME280;63146;-33.830;18.668;2022-09-09T08:10:40;100802.29;;;9.75;65.85
74639;BME280;63146;-33.830;18.668;2022-09-09T08:13:05;100799.14;;;9.90;64.85
74639;BME280;63146;-33.830;18.668;2022-09-09T08:15:31;100796.17;;;10.20;65.22
74639;BME280;63146;-33.830;18.668;2022-09-09T08:17:57;100790.84;;;9.94;64.00
74639;BME280;63146;-33.830;18.668;2022-09-09T08:20:22;100790.39;;;9.99;64.88
74639;BME280;63146;-33.830;18.668;2022-09-09T08:22:47;100790.48;;;10.01;64.26
74639;BME280;63146;-33.830;18.668;2022-09-09T08:25:13;100789.13;;;10.29;62.74
74639;BME280;63146;-33.830;18.668;2022-09-09T08:27:38;100789.72;;;10.12;63.04
74639;BME280;63146;-33.830;18.668;2022-09-09T08:30:04;100783.76;;;9.99;63.45
74639;BME280;63146;-33.830;18.668;2022-09-09T08:32:29;100781.36;;;10.28;62.58
74639;BME280;63146;-33.830;18.668;2022-09-09T08:34:54;100781.23;;;10.25;62.87
74639;BME280;63146;-33.830;18.668;2022-09-09T08:37:19;100786.80;;;10.26;62.74
74639;BME280;63146;-33.830;18.668;2022-09-09T08:39:45;100790.34;;;10.49;61.81
74639;BME280;63146;-33.830;18.668;2022-09-09T08:42:28;100795.24;;;10.09;62.61
74639;BME280;63146;-33.830;18.668;2022-09-09T08:44:47;100795.21;;;10.33;61.58
74639;BME280;63146;-33.830;18.668;2022-09-09T08:47:05;100791.83;;;10.91;61.06
74639;BME280;63146;-33.830;18.668;2022-09-09T08:51:55;100790.80;;;11.10;60.73
74639;BME280;63146;-33.830;18.668;2022-09-09T08:54:18;100783.97;;;11.43;57.76
74639;BME280;63146;-33.830;18.668;2022-09-09T08:56:44;100785.63;;;10.96;60.00
74639;BME280;63146;-33.830;18.668;2022-09-09T08:59:12;100789.69;;;11.21;59.58
74639;BME280;63146;-33.830;18.668;2022-09-09T09:01:41;100784.85;;;11.11;59.21
74639;BME280;63146;-33.830;18.668;2022-09-09T09:04:06;100785.76;;;11.14;59.94
74639;BME280;63146;-33.830;18.668;2022-09-09T09:06:34;100789.37;;;11.15;59.28
74639;BME280;63146;-33.830;18.668;2022-09-09T09:08:57;100793.68;;;11.39;58.12
74639;BME280;63146;-33.830;18.668;2022-09-09T09:11:16;100795.13;;;11.71;58.25
74639;BME280;63146;-33.830;18.668;2022-09-09T09:13:47;100792.69;;;11.31;58.18
74639;BME280;63146;-33.830;18.668;2022-09-09T09:16:17;100794.50;;;11.64;58.72
74639;BME280;63146;-33.830;18.668;2022-09-09T09:18:32;100795.14;;;11.60;58.05
74639;BME280;63146;-33.830;18.668;2022-09-09T09:21:03;100797.70;;;11.68;57.80
74639;BME280;63146;-33.830;18.668;2022-09-09T09:23:24;100798.74;;;11.75;57.90
74639;BME280;63146;-33.830;18.668;2022-09-09T09:25:49;100804.40;;;11.77;57.43
74639;BME280;63146;-33.830;18.668;2022-09-09T09:28:17;100810.21;;;11.59;58.22
74639;BME280;63146;-33.830;18.668;2022-09-09T09:30:41;100814.31;;;11.80;58.02
74639;BME280;63146;-33.830;18.668;2022-09-09T09:33:08;100814.14;;;12.44;57.03
74639;BME280;63146;-33.830;18.668;2022-09-09T09:35:29;100814.13;;;11.92;56.83
74639;BME280;63146;-33.830;18.668;2022-09-09T09:37:55;100810.59;;;12.11;57.01
74639;BME280;63146;-33.830;18.668;2022-09-09T09:40:21;100812.44;;;12.78;56.16
74639;BME280;63146;-33.830;18.668;2022-09-09T09:42:52;100808.69;;;12.02;55.21
74639;BME280;63146;-33.830;18.668;2022-09-09T09:45:16;100810.26;;;12.48;54.61
74639;BME280;63146;-33.830;18.668;2022-09-09T09:47:36;100812.78;;;12.54;53.25
74639;BME280;63146;-33.830;18.668;2022-09-09T09:50:01;100816.98;;;12.26;53.36
74639;BME280;63146;-33.830;18.668;2022-09-09T09:52:28;100812.71;;;12.33;54.09
74639;BME280;63146;-33.830;18.668;2022-09-09T09:54:52;100805.45;;;12.56;53.74
74639;BME280;63146;-33.830;18.668;2022-09-09T09:57:17;100804.92;;;12.36;54.27
74639;BME280;63146;-33.830;18.668;2022-09-09T09:59:43;100808.21;;;12.59;51.92
74639;BME280;63146;-33.830;18.668;2022-09-09T10:02:13;100805.92;;;12.78;52.27
74639;BME280;63146;-33.830;18.668;2022-09-09T10:04:33;100806.42;;;12.34;51.96
74639;BME280;63146;-33.830;18.668;2022-09-09T10:06:58;100803.44;;;12.61;52.67
74639;BME280;63146;-33.830;18.668;2022-09-09T10:09:25;100798.11;;;12.70;52.29
74639;BME280;63146;-33.830;18.668;2022-09-09T10:11:55;100799.03;;;12.74;52.78
74639;BME280;63146;-33.830;18.668;2022-09-09T10:14:20;100790.95;;;12.62;52.51
74639;BME280;63146;-33.830;18.668;2022-09-09T10:16:50;100791.29;;;12.80;51.67
74639;BME280;63146;-33.830;18.668;2022-09-09T10:19:12;100792.27;;;12.36;53.40
74639;BME280;63146;-33.830;18.668;2022-09-09T10:21:50;100790.10;;;12.96;53.30
74639;BME280;63146;-33.830;18.668;2022-09-09T10:24:07;100786.98;;;13.27;53.33
74639;BME280;63146;-33.830;18.668;2022-09-09T10:26:34;100784.74;;;13.43;50.70
74639;BME280;63146;-33.830;18.668;2022-09-09T10:28:58;100782.05;;;12.97;51.20
74639;BME280;63146;-33.830;18.668;2022-09-09T10:31:19;100777.72;;;13.10;51.76
74639;BME280;63146;-33.830;18.668;2022-09-09T10:33:44;100776.23;;;12.80;51.46
74639;BME280;63146;-33.830;18.668;2022-09-09T10:36:08;100776.32;;;13.07;51.86
74639;BME280;63146;-33.830;18.668;2022-09-09T10:38:32;100776.83;;;13.08;51.48
74639;BME280;63146;-33.830;18.668;2022-09-09T10:41:11;100774.80;;;12.79;51.21
74639;BME280;63146;-33.830;18.668;2022-09-09T10:43:30;100770.38;;;12.91;50.86
74639;BME280;63146;-33.830;18.668;2022-09-09T10:45:53;100770.55;;;13.15;51.41
74639;BME280;63146;-33.830;18.668;2022-09-09T10:48:21;100762.93;;;12.75;52.86
74639;BME280;63146;-33.830;18.668;2022-09-09T10:50:49;100764.56;;;12.85;51.95
74639;BME280;63146;-33.830;18.668;2022-09-09T10:53:07;100762.14;;;13.22;51.24
74639;BME280;63146;-33.830;18.668;2022-09-09T10:55:31;100761.93;;;13.11;53.12
74639;BME280;63146;-33.830;18.668;2022-09-09T10:57:52;100764.10;;;12.88;52.24
74639;BME280;63146;-33.830;18.668;2022-09-09T11:00:19;100761.44;;;12.86;53.85
74639;BME280;63146;-33.830;18.668;2022-09-09T11:02:42;100760.99;;;13.08;53.23
74639;BME280;63146;-33.830;18.668;2022-09-09T11:05:14;100755.19;;;13.68;51.39
74639;BME280;63146;-33.830;18.668;2022-09-09T11:07:37;100751.98;;;13.39;49.74
74639;BME280;63146;-33.830;18.668;2022-09-09T11:10:02;100749.80;;;12.96;51.62
74639;BME280;63146;-33.830;18.668;2022-09-09T11:12:24;100747.30;;;13.12;50.64
74639;BME280;63146;-33.830;18.668;2022-09-09T11:14:51;100746.15;;;13.50;51.28
74639;BME280;63146;-33.830;18.668;2022-09-09T11:17:18;100741.62;;;13.03;51.54
74639;BME280;63146;-33.830;18.668;2022-09-09T11:19:41;100737.03;;;13.32;51.86
74639;BME280;63146;-33.830;18.668;2022-09-09T11:22:07;100737.30;;;13.24;50.46
74639;BME280;63146;-33.830;18.668;2022-09-09T11:24:34;100736.50;;;13.15;51.80
74639;BME280;63146;-33.830;18.668;2022-09-09T11:26:58;100737.46;;;13.26;52.49
74639;BME280;63146;-33.830;18.668;2022-09-09T11:31:54;100734.96;;;13.12;51.32
74639;BME280;63146;-33.830;18.668;2022-09-09T11:34:20;100737.16;;;13.02;49.99
74639;BME280;63146;-33.830;18.668;2022-09-09T11:36:48;100740.77;;;13.10;51.57
74639;BME280;63146;-33.830;18.668;2022-09-09T11:39:22;100741.56;;;13.01;50.91
74639;BME280;63146;-33.830;18.668;2022-09-09T11:41:33;100736.21;;;12.96;51.07
74639;BME280;63146;-33.830;18.668;2022-09-09T11:43:53;100737.75;;;13.16;50.29
74639;BME280;63146;-33.830;18.668;2022-09-09T11:46:21;100735.78;;;13.34;51.59
74639;BME280;63146;-33.830;18.668;2022-09-09T11:48:57;100736.42;;;13.30;51.33
74639;BME280;63146;-33.830;18.668;2022-09-09T11:51:10;100736.10;;;13.12;50.48
74639;BME280;63146;-33.830;18.668;2022-09-09T11:53:35;100735.02;;;13.04;50.91
74639;BME280;63146;-33.830;18.668;2022-09-09T11:56:08;100726.45;;;13.00;50.98
74639;BME280;63146;-33.830;18.668;2022-09-09T11:58:24;100724.26;;;13.17;51.56
74639;BME280;63146;-33.830;18.668;2022-09-09T12:00:50;100720.52;;;13.13;51.91
74639;BME280;63146;-33.830;18.668;2022-09-09T12:05:42;100719.68;;;13.16;50.25
74639;BME280;63146;-33.830;18.668;2022-09-09T12:08:16;100718.56;;;13.23;51.29
74639;BME280;63146;-33.830;18.668;2022-09-09T12:10:33;100714.17;;;13.05;50.58
74639;BME280;63146;-33.830;18.668;2022-09-09T12:13:08;100710.67;;;13.02;50.78
74639;BME280;63146;-33.830;18.668;2022-09-09T12:15:26;100708.91;;;13.01;50.35
74639;BME280;63146;-33.830;18.668;2022-09-09T12:17:49;100708.97;;;12.94;50.34
74639;BME280;63146;-33.830;18.668;2022-09-09T12:20:16;100705.50;;;13.31;49.80
74639;BME280;63146;-33.830;18.668;2022-09-09T12:22:47;100700.66;;;13.13;48.30
74639;BME280;63146;-33.830;18.668;2022-09-09T12:25:16;100701.52;;;13.22;50.19
74639;BME280;63146;-33.830;18.668;2022-09-09T12:27:33;100701.72;;;13.17;48.75
74639;BME280;63146;-33.830;18.668;2022-09-09T12:29:59;100697.57;;;13.29;49.84
74639;BME280;63146;-33.830;18.668;2022-09-09T12:32:22;100697.87;;;13.31;48.55